sensor_id;sensor_type;location;lat;lon;timestamp;P1;durP1;ratioP1;P2;durP2;ratioP2
29484;SDS011;16440;59.494;17.978;2022-08-21T00:00:57;10.53;;;2.43;;
29484;SDS011;16440;59.494;17.978;2022-08-21T00:03:29;8.50;;;2.50;;
29484;SDS011;16440;59.494;17.978;2022-08-21T00:06:01;7.10;;;2.65;;
29484;SDS011;16440;59.494;17.978;2022-08-21T00:08:29;10.23;;;2.75;;
29484;SDS011;16440;59.494;17.978;2022-08-21T00:10:59;9.70;;;2.90;;
29484;SDS011;16440;59.494;17.978;2022-08-21T00:13:29;6.55;;;2.47;;
29484;SDS011;16440;59.494;17.978;2022-08-21T00:15:59;9.63;;;2.70;;
29484;SDS011;16440;59.494;17.978;2022-08-21T00:18:33;10.68;;;2.50;;
29484;SDS011;16440;59.494;17.978;2022-08-21T00:21:07;6.32;;;2.40;;
29484;SDS011;16440;59.494;17.978;2022-08-21T00:23:46;7.67;;;2.60;;
29484;SDS011;16440;59.494;17.978;2022-08-21T00:26:16;8.02;;;2.17;;
29484;SDS011;16440;59.494;17.978;2022-08-21T00:28:46;11.38;;;2.30;;
29484;SDS011;16440;59.494;17.978;2022-08-21T00:31:18;6.78;;;2.25;;
29484;SDS011;16440;59.494;17.978;2022-08-21T00:33:48;8.57;;;2.37;;
29484;SDS011;16440;59.494;17.978;2022-08-21T00:36:23;8.45;;;2.50;;
29484;SDS011;16440;59.494;17.978;2022-08-21T00:38:51;6.97;;;2.80;;
29484;SDS011;16440;59.494;17.978;2022-08-21T00:41:24;13.02;;;2.97;;
29484;SDS011;16440;59.494;17.978;2022-08-21T00:44:00;8.40;;;2.33;;
29484;SDS011;16440;59.494;17.978;2022-08-21T00:46:31;9.35;;;2.80;;
29484;SDS011;16440;59.494;17.978;2022-08-21T00:48:59;10.40;;;3.72;;
29484;SDS011;16440;59.494;17.978;2022-08-21T00:51:35;13.02;;;2.87;;
29484;SDS011;16440;59.494;17.978;2022-08-21T00:54:03;9.70;;;3.00;;
29484;SDS011;16440;59.494;17.978;2022-08-21T00:56:39;8.10;;;3.00;;
29484;SDS011;16440;59.494;17.978;2022-08-21T00:59:11;7.45;;;3.12;;
29484;SDS011;16440;59.494;17.978;2022-08-21T01:04:08;10.00;;;2.87;;
29484;SDS011;16440;59.494;17.978;2022-08-21T01:06:38;6.87;;;3.17;;
29484;SDS011;16440;59.494;17.978;2022-08-21T01:09:10;11.35;;;2.90;;
29484;SDS011;16440;59.494;17.978;2022-08-21T01:11:43;7.40;;;3.00;;
29484;SDS011;16440;59.494;17.978;2022-08-21T01:14:18;6.35;;;2.75;;
29484;SDS011;16440;59.494;17.978;2022-08-21T01:16:52;14.93;;;3.30;;
29484;SDS011;16440;59.494;17.978;2022-08-21T01:19:23;11.57;;;3.10;;
29484;SDS011;16440;59.494;17.978;2022-08-21T01:21:58;8.45;;;3.22;;
29484;SDS011;16440;59.494;17.978;2022-08-21T01:24:47;7.72;;;3.10;;
29484;SDS011;16440;59.494;17.978;2022-08-21T01:27:18;9.98;;;2.83;;
29484;SDS011;16440;59.494;17.978;2022-08-21T01:29:51;6.72;;;2.97;;
29484;SDS011;16440;59.494;17.978;2022-08-21T01:32:27;8.23;;;2.90;;
29484;SDS011;16440;59.494;17.978;2022-08-21T01:34:57;12.10;;;2.85;;
29484;SDS011;16440;59.494;17.978;2022-08-21T01:37:27;9.88;;;2.90;;
29484;SDS011;16440;59.494;17.978;2022-08-21T01:39:59;9.50;;;3.12;;
29484;SDS011;16440;59.494;17.978;2022-08-21T01:42:30;9.43;;;2.85;;
29484;SDS011;16440;59.494;17.978;2022-08-21T01:44:59;8.63;;;3.37;;
29484;SDS011;16440;59.494;17.978;2022-08-21T01:47:28;11.45;;;2.87;;
29484;SDS011;16440;59.494;17.978;2022-08-21T01:49:59;6.60;;;3.20;;
29484;SDS011;16440;59.494;17.978;2022-08-21T01:52:29;12.52;;;3.40;;
29484;SDS011;16440;59.494;17.978;2022-08-21T01:55:00;11.35;;;3.35;;
29484;SDS011;16440;59.494;17.978;2022-08-21T02:00:09;8.65;;;3.33;;
29484;SDS011;16440;59.494;17.978;2022-08-21T02:02:39;8.77;;;3.67;;
29484;SDS011;16440;59.494;17.978;2022-08-21T02:05:10;12.23;;;3.70;;
29484;SDS011;16440;59.494;17.978;2022-08-21T02:07:45;12.30;;;4.22;;
29484;SDS011;16440;59.494;17.978;2022-08-21T02:10:19;12.32;;;3.83;;
29484;SDS011;16440;59.494;17.978;2022-08-21T02:12:58;10.75;;;3.50;;
29484;SDS011;16440;59.494;17.978;2022-08-21T02:15:27;9.57;;;3.70;;
29484;SDS011;16440;59.494;17.978;2022-08-21T02:23:08;12.65;;;3.72;;
29484;SDS011;16440;59.494;17.978;2022-08-21T02:25:38;9.95;;;3.70;;
29484;SDS011;16440;59.494;17.978;2022-08-21T02:28:08;13.23;;;4.10;;
29484;SDS011;16440;59.494;17.978;2022-08-21T02:30:43;9.60;;;3.55;;
29484;SDS011;16440;59.494;17.978;2022-08-21T02:33:23;13.68;;;3.67;;
29484;SDS011;16440;59.494;17.978;2022-08-21T02:35:55;12.88;;;3.42;;
29484;SDS011;16440;59.494;17.978;2022-08-21T02:38:33;9.95;;;4.22;;
29484;SDS011;16440;59.494;17.978;2022-08-21T02:41:03;5.50;;;3.53;;
29484;SDS011;16440;59.494;17.978;2022-08-21T02:43:33;9.23;;;4.25;;
29484;SDS011;16440;59.494;17.978;2022-08-21T02:46:04;7.72;;;3.28;;
29484;SDS011;16440;59.494;17.978;2022-08-21T02:51:04;9.00;;;3.15;;
29484;SDS011;16440;59.494;17.978;2022-08-21T02:53:41;10.93;;;4.15;;
29484;SDS011;16440;59.494;17.978;2022-08-21T02:56:14;9.50;;;3.97;;
29484;SDS011;16440;59.494;17.978;2022-08-21T02:58:49;9.43;;;4.00;;
29484;SDS011;16440;59.494;17.978;2022-08-21T03:01:23;13.77;;;3.97;;
29484;SDS011;16440;59.494;17.978;2022-08-21T03:04:01;13.13;;;3.80;;
29484;SDS011;16440;59.494;17.978;2022-08-21T03:06:29;9.75;;;3.50;;
29484;SDS011;16440;59.494;17.978;2022-08-21T03:09:01;12.98;;;3.67;;
29484;SDS011;16440;59.494;17.978;2022-08-21T03:11:32;15.52;;;3.80;;
29484;SDS011;16440;59.494;17.978;2022-08-21T03:13:59;7.40;;;3.50;;
29484;SDS011;16440;59.494;17.978;2022-08-21T03:16:28;11.82;;;3.45;;
29484;SDS011;16440;59.494;17.978;2022-08-21T03:18:56;8.07;;;3.40;;
29484;SDS011;16440;59.494;17.978;2022-08-21T03:21:29;8.98;;;3.87;;
29484;SDS011;16440;59.494;17.978;2022-08-21T03:24:01;13.32;;;3.97;;
29484;SDS011;16440;59.494;17.978;2022-08-21T03:29:02;15.93;;;3.65;;
29484;SDS011;16440;59.494;17.978;2022-08-21T03:31:38;10.43;;;3.95;;
29484;SDS011;16440;59.494;17.978;2022-08-21T03:34:08;10.95;;;4.53;;
29484;SDS011;16440;59.494;17.978;2022-08-21T03:36:44;8.82;;;3.92;;
29484;SDS011;16440;59.494;17.978;2022-08-21T03:39:16;10.63;;;4.15;;
29484;SDS011;16440;59.494;17.978;2022-08-21T03:41:51;8.85;;;3.92;;
29484;SDS011;16440;59.494;17.978;2022-08-21T03:44:20;9.75;;;4.28;;
29484;SDS011;16440;59.494;17.978;2022-08-21T03:46:54;11.82;;;4.18;;
29484;SDS011;16440;59.494;17.978;2022-08-21T03:49:25;8.02;;;3.60;;
29484;SDS011;16440;59.494;17.978;2022-08-21T03:51:54;8.55;;;3.67;;
29484;SDS011;16440;59.494;17.978;2022-08-21T03:54:26;13.80;;;3.47;;
29484;SDS011;16440;59.494;17.978;2022-08-21T03:56:59;7.90;;;3.90;;
29484;SDS011;16440;59.494;17.978;2022-08-21T03:59:27;12.63;;;4.18;;
29484;SDS011;16440;59.494;17.978;2022-08-21T04:02:01;9.88;;;3.83;;
29484;SDS011;16440;59.494;17.978;2022-08-21T04:04:31;13.57;;;4.45;;
29484;SDS011;16440;59.494;17.978;2022-08-21T04:06:59;9.70;;;3.78;;
29484;SDS011;16440;59.494;17.978;2022-08-21T04:09:32;12.35;;;4.00;;
29484;SDS011;16440;59.494;17.978;2022-08-21T04:11:59;10.23;;;3.97;;
29484;SDS011;16440;59.494;17.978;2022-08-21T04:14:28;13.80;;;3.78;;
29484;SDS011;16440;59.494;17.978;2022-08-21T04:16:59;7.97;;;3.22;;
29484;SDS011;16440;59.494;17.978;2022-08-21T04:22:02;10.95;;;4.05;;
29484;SDS011;16440;59.494;17.978;2022-08-21T04:24:34;8.93;;;3.78;;
29484;SDS011;16440;59.494;17.978;2022-08-21T04:27:04;8.80;;;3.90;;
29484;SDS011;16440;59.494;17.978;2022-08-21T04:29:32;6.72;;;3.15;;
29484;SDS011;16440;59.494;17.978;2022-08-21T04:31:59;11.43;;;3.40;;
29484;SDS011;16440;59.494;17.978;2022-08-21T04:37:05;11.77;;;4.03;;
29484;SDS011;16440;59.494;17.978;2022-08-21T04:42:02;9.98;;;3.80;;
29484;SDS011;16440;59.494;17.978;2022-08-21T04:47:06;11.00;;;3.58;;
29484;SDS011;16440;59.494;17.978;2022-08-21T04:52:00;12.25;;;3.78;;
29484;SDS011;16440;59.494;17.978;2022-08-21T04:54:31;7.55;;;3.75;;
29484;SDS011;16440;59.494;17.978;2022-08-21T04:57:00;12.65;;;3.70;;
29484;SDS011;16440;59.494;17.978;2022-08-21T05:02:04;17.15;;;3.70;;
29484;SDS011;16440;59.494;17.978;2022-08-21T05:04:38;16.98;;;3.40;;
29484;SDS011;16440;59.494;17.978;2022-08-21T05:07:15;10.20;;;3.40;;
29484;SDS011;16440;59.494;17.978;2022-08-21T05:09:48;7.93;;;2.92;;
29484;SDS011;16440;59.494;17.978;2022-08-21T05:12:33;14.77;;;2.95;;
29484;SDS011;16440;59.494;17.978;2022-08-21T05:15:06;12.93;;;3.08;;
29484;SDS011;16440;59.494;17.978;2022-08-21T05:17:41;8.77;;;3.30;;
29484;SDS011;16440;59.494;17.978;2022-08-21T05:20:13;12.57;;;3.47;;
29484;SDS011;16440;59.494;17.978;2022-08-21T05:22:41;7.45;;;2.97;;
29484;SDS011;16440;59.494;17.978;2022-08-21T05:25:12;4.32;;;3.05;;
29484;SDS011;16440;59.494;17.978;2022-08-21T05:27:45;12.13;;;3.20;;
29484;SDS011;16440;59.494;17.978;2022-08-21T05:30:18;9.75;;;3.17;;
29484;SDS011;16440;59.494;17.978;2022-08-21T05:32:55;7.25;;;3.17;;
29484;SDS011;16440;59.494;17.978;2022-08-21T05:35:24;9.82;;;3.22;;
29484;SDS011;16440;59.494;17.978;2022-08-21T05:37:55;9.45;;;3.05;;
29484;SDS011;16440;59.494;17.978;2022-08-21T05:40:32;16.50;;;3.42;;
29484;SDS011;16440;59.494;17.978;2022-08-21T05:43:01;11.43;;;3.40;;
29484;SDS011;16440;59.494;17.978;2022-08-21T05:48:11;7.12;;;2.70;;
29484;SDS011;16440;59.494;17.978;2022-08-21T05:50:43;8.73;;;2.80;;
29484;SDS011;16440;59.494;17.978;2022-08-21T05:53:12;13.15;;;3.10;;
29484;SDS011;16440;59.494;17.978;2022-08-21T05:55:45;9.65;;;2.80;;
29484;SDS011;16440;59.494;17.978;2022-08-21T05:58:16;10.57;;;2.78;;
29484;SDS011;16440;59.494;17.978;2022-08-21T06:00:47;8.75;;;2.78;;
29484;SDS011;16440;59.494;17.978;2022-08-21T06:03:22;6.20;;;2.55;;
29484;SDS011;16440;59.494;17.978;2022-08-21T06:05:56;12.45;;;2.80;;
29484;SDS011;16440;59.494;17.978;2022-08-21T06:08:38;17.15;;;2.53;;
29484;SDS011;16440;59.494;17.978;2022-08-21T06:11:10;11.82;;;2.55;;
29484;SDS011;16440;59.494;17.978;2022-08-21T06:13:42;16.92;;;2.90;;
29484;SDS011;16440;59.494;17.978;2022-08-21T06:16:12;11.20;;;2.80;;
29484;SDS011;16440;59.494;17.978;2022-08-21T06:18:48;8.48;;;2.83;;
29484;SDS011;16440;59.494;17.978;2022-08-21T06:21:19;10.40;;;2.50;;
29484;SDS011;16440;59.494;17.978;2022-08-21T06:23:47;6.50;;;2.25;;
29484;SDS011;16440;59.494;17.978;2022-08-21T06:26:19;9.95;;;2.55;;
29484;SDS011;16440;59.494;17.978;2022-08-21T06:28:49;9.13;;;2.55;;
29484;SDS011;16440;59.494;17.978;2022-08-21T06:31:19;9.38;;;2.25;;
29484;SDS011;16440;59.494;17.978;2022-08-21T06:33:52;8.88;;;2.22;;
29484;SDS011;16440;59.494;17.978;2022-08-21T06:36:20;12.05;;;2.30;;
29484;SDS011;16440;59.494;17.978;2022-08-21T06:38:51;13.35;;;2.37;;
29484;SDS011;16440;59.494;17.978;2022-08-21T06:41:20;17.65;;;2.58;;
29484;SDS011;16440;59.494;17.978;2022-08-21T06:43:50;8.98;;;2.33;;
29484;SDS011;16440;59.494;17.978;2022-08-21T06:46:18;15.93;;;2.53;;
29484;SDS011;16440;59.494;17.978;2022-08-21T06:48:46;8.73;;;2.15;;
29484;SDS011;16440;59.494;17.978;2022-08-21T06:51:15;11.73;;;2.08;;
29484;SDS011;16440;59.494;17.978;2022-08-21T06:53:44;12.57;;;2.42;;
29484;SDS011;16440;59.494;17.978;2022-08-21T06:56:12;12.55;;;2.15;;
29484;SDS011;16440;59.494;17.978;2022-08-21T06:58:40;6.97;;;2.30;;
29484;SDS011;16440;59.494;17.978;2022-08-21T07:01:12;7.12;;;2.67;;
29484;SDS011;16440;59.494;17.978;2022-08-21T07:03:42;10.52;;;2.53;;
29484;SDS011;16440;59.494;17.978;2022-08-21T07:06:14;10.15;;;2.92;;
29484;SDS011;16440;59.494;17.978;2022-08-21T07:08:42;14.07;;;2.12;;
29484;SDS011;16440;59.494;17.978;2022-08-21T07:11:11;7.55;;;2.17;;
29484;SDS011;16440;59.494;17.978;2022-08-21T07:13:43;9.90;;;1.95;;
29484;SDS011;16440;59.494;17.978;2022-08-21T07:16:14;17.23;;;2.60;;
29484;SDS011;16440;59.494;17.978;2022-08-21T07:18:42;8.50;;;2.03;;
29484;SDS011;16440;59.494;17.978;2022-08-21T07:21:12;9.13;;;2.10;;
29484;SDS011;16440;59.494;17.978;2022-08-21T07:23:42;8.07;;;2.10;;
29484;SDS011;16440;59.494;17.978;2022-08-21T07:26:17;10.48;;;2.08;;
29484;SDS011;16440;59.494;17.978;2022-08-21T07:28:48;10.35;;;2.10;;
29484;SDS011;16440;59.494;17.978;2022-08-21T07:31:19;8.15;;;1.95;;
29484;SDS011;16440;59.494;17.978;2022-08-21T07:33:51;11.95;;;2.10;;
29484;SDS011;16440;59.494;17.978;2022-08-21T07:36:19;15.77;;;2.92;;
29484;SDS011;16440;59.494;17.978;2022-08-21T07:38:48;7.00;;;2.08;;
29484;SDS011;16440;59.494;17.978;2022-08-21T07:41:18;7.32;;;2.25;;
29484;SDS011;16440;59.494;17.978;2022-08-21T07:43:48;10.70;;;2.12;;
29484;SDS011;16440;59.494;17.978;2022-08-21T07:46:21;11.12;;;2.33;;
29484;SDS011;16440;59.494;17.978;2022-08-21T07:48:50;13.35;;;2.10;;
29484;SDS011;16440;59.494;17.978;2022-08-21T07:51:20;11.88;;;1.98;;
29484;SDS011;16440;59.494;17.978;2022-08-21T07:53:53;13.20;;;2.58;;
29484;SDS011;16440;59.494;17.978;2022-08-21T07:56:23;11.00;;;2.72;;
29484;SDS011;16440;59.494;17.978;2022-08-21T07:58:54;9.65;;;2.20;;
29484;SDS011;16440;59.494;17.978;2022-08-21T08:01:24;9.68;;;2.10;;
29484;SDS011;16440;59.494;17.978;2022-08-21T08:03:55;11.02;;;2.33;;
29484;SDS011;16440;59.494;17.978;2022-08-21T08:06:23;8.82;;;2.37;;
29484;SDS011;16440;59.494;17.978;2022-08-21T08:08:54;10.55;;;2.30;;
29484;SDS011;16440;59.494;17.978;2022-08-21T08:11:23;7.10;;;2.00;;
29484;SDS011;16440;59.494;17.978;2022-08-21T08:13:58;10.98;;;2.10;;
29484;SDS011;16440;59.494;17.978;2022-08-21T08:16:30;6.78;;;1.80;;
29484;SDS011;16440;59.494;17.978;2022-08-21T08:19:00;9.32;;;2.10;;
29484;SDS011;16440;59.494;17.978;2022-08-21T08:21:31;6.70;;;1.80;;
29484;SDS011;16440;59.494;17.978;2022-08-21T08:29:30;7.68;;;1.77;;
29484;SDS011;16440;59.494;17.978;2022-08-21T08:32:01;10.70;;;1.80;;
29484;SDS011;16440;59.494;17.978;2022-08-21T08:34:32;7.28;;;1.70;;
29484;SDS011;16440;59.494;17.978;2022-08-21T08:37:00;11.68;;;1.92;;
29484;SDS011;16440;59.494;17.978;2022-08-21T08:39:29;14.60;;;2.47;;
29484;SDS011;16440;59.494;17.978;2022-08-21T08:42:02;7.85;;;2.12;;
29484;SDS011;16440;59.494;17.978;2022-08-21T08:44:35;7.95;;;2.00;;
29484;SDS011;16440;59.494;17.978;2022-08-21T08:47:10;9.45;;;1.90;;
29484;SDS011;16440;59.494;17.978;2022-08-21T08:49:43;10.57;;;1.90;;
29484;SDS011;16440;59.494;17.978;2022-08-21T08:52:22;8.25;;;1.80;;
29484;SDS011;16440;59.494;17.978;2022-08-21T08:54:55;5.85;;;1.83;;
29484;SDS011;16440;59.494;17.978;2022-08-21T08:57:29;9.27;;;1.70;;
29484;SDS011;16440;59.494;17.978;2022-08-21T09:00:04;9.10;;;1.80;;
29484;SDS011;16440;59.494;17.978;2022-08-21T09:02:37;5.65;;;1.65;;
29484;SDS011;16440;59.494;17.978;2022-08-21T09:05:06;10.07;;;1.70;;
29484;SDS011;16440;59.494;17.978;2022-08-21T09:07:39;7.72;;;1.45;;
29484;SDS011;16440;59.494;17.978;2022-08-21T09:10:21;6.97;;;1.62;;
29484;SDS011;16440;59.494;17.978;2022-08-21T09:12:56;12.65;;;1.50;;
29484;SDS011;16440;59.494;17.978;2022-08-21T09:15:32;8.02;;;1.73;;
29484;SDS011;16440;59.494;17.978;2022-08-21T09:18:05;9.20;;;1.60;;
29484;SDS011;16440;59.494;17.978;2022-08-21T09:20:59;7.07;;;1.62;;
29484;SDS011;16440;59.494;17.978;2022-08-21T09:26:25;3.70;;;1.30;;
29484;SDS011;16440;59.494;17.978;2022-08-21T09:28:58;9.17;;;1.73;;
29484;SDS011;16440;59.494;17.978;2022-08-21T09:31:28;3.90;;;1.30;;
29484;SDS011;16440;59.494;17.978;2022-08-21T09:33:59;13.90;;;1.73;;
29484;SDS011;16440;59.494;17.978;2022-08-21T09:36:31;7.70;;;1.73;;
29484;SDS011;16440;59.494;17.978;2022-08-21T09:38:59;11.15;;;1.75;;
29484;SDS011;16440;59.494;17.978;2022-08-21T09:41:33;6.07;;;1.50;;
29484;SDS011;16440;59.494;17.978;2022-08-21T09:44:00;6.20;;;1.42;;
29484;SDS011;16440;59.494;17.978;2022-08-21T09:46:35;6.43;;;1.35;;
29484;SDS011;16440;59.494;17.978;2022-08-21T09:49:26;6.85;;;1.45;;
29484;SDS011;16440;59.494;17.978;2022-08-21T09:51:55;6.22;;;1.48;;
29484;SDS011;16440;59.494;17.978;2022-08-21T09:54:26;4.00;;;1.23;;
29484;SDS011;16440;59.494;17.978;2022-08-21T09:56:59;4.72;;;1.37;;
29484;SDS011;16440;59.494;17.978;2022-08-21T10:00:06;6.03;;;1.80;;
29484;SDS011;16440;59.494;17.978;2022-08-21T10:02:38;5.12;;;1.42;;
29484;SDS011;16440;59.494;17.978;2022-08-21T10:05:14;6.68;;;1.50;;
29484;SDS011;16440;59.494;17.978;2022-08-21T10:07:44;7.05;;;1.33;;
29484;SDS011;16440;59.494;17.978;2022-08-21T10:10:14;5.85;;;1.60;;
29484;SDS011;16440;59.494;17.978;2022-08-21T10:12:47;6.68;;;1.25;;
29484;SDS011;16440;59.494;17.978;2022-08-21T10:15:27;5.22;;;1.55;;
29484;SDS011;16440;59.494;17.978;2022-08-21T10:18:06;4.07;;;1.35;;
29484;SDS011;16440;59.494;17.978;2022-08-21T10:20:40;9.10;;;1.23;;
29484;SDS011;16440;59.494;17.978;2022-08-21T10:23:23;3.97;;;1.25;;
29484;SDS011;16440;59.494;17.978;2022-08-21T10:26:01;4.25;;;1.25;;
29484;SDS011;16440;59.494;17.978;2022-08-21T10:31:02;5.95;;;1.37;;
29484;SDS011;16440;59.494;17.978;2022-08-21T10:33:47;6.78;;;1.70;;
29484;SDS011;16440;59.494;17.978;2022-08-21T10:36:26;6.10;;;1.25;;
29484;SDS011;16440;59.494;17.978;2022-08-21T10:39:02;5.00;;;1.62;;
29484;SDS011;16440;59.494;17.978;2022-08-21T10:41:43;3.55;;;1.15;;
29484;SDS011;16440;59.494;17.978;2022-08-21T10:44:34;6.90;;;1.60;;
29484;SDS011;16440;59.494;17.978;2022-08-21T10:49:38;3.72;;;1.40;;
29484;SDS011;16440;59.494;17.978;2022-08-21T10:52:30;4.10;;;1.45;;
29484;SDS011;16440;59.494;17.978;2022-08-21T10:55:21;4.35;;;1.00;;
29484;SDS011;16440;59.494;17.978;2022-08-21T10:57:54;4.78;;;1.08;;
29484;SDS011;16440;59.494;17.978;2022-08-21T11:00:26;4.53;;;1.30;;
29484;SDS011;16440;59.494;17.978;2022-08-21T11:05:33;7.93;;;1.30;;
29484;SDS011;16440;59.494;17.978;2022-08-21T11:08:02;7.75;;;1.27;;
29484;SDS011;16440;59.494;17.978;2022-08-21T11:10:34;4.68;;;1.20;;
29484;SDS011;16440;59.494;17.978;2022-08-21T11:13:03;6.05;;;1.65;;
29484;SDS011;16440;59.494;17.978;2022-08-21T11:15:40;3.92;;;1.15;;
29484;SDS011;16440;59.494;17.978;2022-08-21T11:18:21;7.82;;;1.70;;
29484;SDS011;16440;59.494;17.978;2022-08-21T11:20:56;6.05;;;1.55;;
29484;SDS011;16440;59.494;17.978;2022-08-21T11:23:33;5.03;;;1.30;;
29484;SDS011;16440;59.494;17.978;2022-08-21T11:26:10;3.90;;;1.52;;
29484;SDS011;16440;59.494;17.978;2022-08-21T11:28:46;5.00;;;1.35;;
29484;SDS011;16440;59.494;17.978;2022-08-21T11:31:25;6.32;;;1.58;;
29484;SDS011;16440;59.494;17.978;2022-08-21T11:34:04;5.25;;;1.00;;
29484;SDS011;16440;59.494;17.978;2022-08-21T11:36:44;3.25;;;1.12;;
29484;SDS011;16440;59.494;17.978;2022-08-21T11:39:21;4.72;;;1.40;;
29484;SDS011;16440;59.494;17.978;2022-08-21T11:41:59;4.93;;;1.37;;
29484;SDS011;16440;59.494;17.978;2022-08-21T11:47:12;5.12;;;1.48;;
29484;SDS011;16440;59.494;17.978;2022-08-21T11:49:49;8.93;;;2.28;;
29484;SDS011;16440;59.494;17.978;2022-08-21T11:52:29;4.12;;;1.52;;
29484;SDS011;16440;59.494;17.978;2022-08-21T11:55:03;4.37;;;1.65;;
29484;SDS011;16440;59.494;17.978;2022-08-21T11:57:38;5.45;;;1.50;;
29484;SDS011;16440;59.494;17.978;2022-08-21T12:00:15;5.60;;;1.30;;
29484;SDS011;16440;59.494;17.978;2022-08-21T12:02:48;4.32;;;1.40;;
29484;SDS011;16440;59.494;17.978;2022-08-21T12:05:25;6.43;;;1.40;;
29484;SDS011;16440;59.494;17.978;2022-08-21T12:08:03;5.97;;;1.35;;
29484;SDS011;16440;59.494;17.978;2022-08-21T12:13:21;6.50;;;1.33;;
29484;SDS011;16440;59.494;17.978;2022-08-21T12:15:52;5.65;;;1.62;;
29484;SDS011;16440;59.494;17.978;2022-08-21T12:18:31;4.72;;;1.10;;
29484;SDS011;16440;59.494;17.978;2022-08-21T12:21:01;7.53;;;1.37;;
29484;SDS011;16440;59.494;17.978;2022-08-21T12:23:45;6.75;;;1.27;;
29484;SDS011;16440;59.494;17.978;2022-08-21T12:26:23;5.45;;;1.12;;
29484;SDS011;16440;59.494;17.978;2022-08-21T12:29:16;6.65;;;1.65;;
29484;SDS011;16440;59.494;17.978;2022-08-21T12:31:52;6.78;;;1.30;;
29484;SDS011;16440;59.494;17.978;2022-08-21T12:34:23;4.97;;;1.10;;
29484;SDS011;16440;59.494;17.978;2022-08-21T12:36:59;4.50;;;1.10;;
29484;SDS011;16440;59.494;17.978;2022-08-21T12:39:33;7.53;;;1.27;;
29484;SDS011;16440;59.494;17.978;2022-08-21T12:45:13;8.40;;;1.40;;
29484;SDS011;16440;59.494;17.978;2022-08-21T12:47:47;2.37;;;1.00;;
29484;SDS011;16440;59.494;17.978;2022-08-21T12:50:40;7.25;;;1.10;;
29484;SDS011;16440;59.494;17.978;2022-08-21T12:53:09;3.10;;;1.02;;
29484;SDS011;16440;59.494;17.978;2022-08-21T12:55:49;5.65;;;1.30;;
29484;SDS011;16440;59.494;17.978;2022-08-21T12:58:18;5.22;;;1.20;;
29484;SDS011;16440;59.494;17.978;2022-08-21T13:00:49;3.65;;;1.15;;
29484;SDS011;16440;59.494;17.978;2022-08-21T13:03:23;3.30;;;1.08;;
29484;SDS011;16440;59.494;17.978;2022-08-21T13:05:51;2.87;;;1.08;;
29484;SDS011;16440;59.494;17.978;2022-08-21T13:08:24;3.03;;;1.02;;
29484;SDS011;16440;59.494;17.978;2022-08-21T13:10:56;3.55;;;1.00;;
29484;SDS011;16440;59.494;17.978;2022-08-21T13:16:11;3.90;;;1.27;;
29484;SDS011;16440;59.494;17.978;2022-08-21T13:18:53;3.40;;;1.00;;
29484;SDS011;16440;59.494;17.978;2022-08-21T13:21:33;4.78;;;1.30;;
29484;SDS011;16440;59.494;17.978;2022-08-21T13:24:11;2.08;;;1.00;;
29484;SDS011;16440;59.494;17.978;2022-08-21T13:26:47;3.80;;;1.00;;
29484;SDS011;16440;59.494;17.978;2022-08-21T13:29:17;3.05;;;1.10;;
29484;SDS011;16440;59.494;17.978;2022-08-21T13:31:49;2.45;;;0.98;;
29484;SDS011;16440;59.494;17.978;2022-08-21T13:34:20;2.85;;;0.90;;
29484;SDS011;16440;59.494;17.978;2022-08-21T13:36:51;8.02;;;2.05;;
29484;SDS011;16440;59.494;17.978;2022-08-21T13:39:24;3.85;;;1.20;;
29484;SDS011;16440;59.494;17.978;2022-08-21T13:41:56;4.57;;;0.80;;
29484;SDS011;16440;59.494;17.978;2022-08-21T13:44:32;2.78;;;0.80;;
29484;SDS011;16440;59.494;17.978;2022-08-21T13:47:02;2.70;;;1.00;;
29484;SDS011;16440;59.494;17.978;2022-08-21T13:51:59;1.50;;;0.75;;
29484;SDS011;16440;59.494;17.978;2022-08-21T13:54:32;3.95;;;1.02;;
29484;SDS011;16440;59.494;17.978;2022-08-21T13:57:01;7.50;;;0.80;;
29484;SDS011;16440;59.494;17.978;2022-08-21T13:59:30;4.28;;;0.90;;
29484;SDS011;16440;59.494;17.978;2022-08-21T14:02:00;2.92;;;0.88;;
29484;SDS011;16440;59.494;17.978;2022-08-21T14:04:38;5.82;;;0.70;;
29484;SDS011;16440;59.494;17.978;2022-08-21T14:07:20;3.30;;;0.68;;
29484;SDS011;16440;59.494;17.978;2022-08-21T14:10:01;6.37;;;0.85;;
29484;SDS011;16440;59.494;17.978;2022-08-21T14:12:43;3.08;;;0.70;;
29484;SDS011;16440;59.494;17.978;2022-08-21T14:15:20;2.55;;;0.80;;
29484;SDS011;16440;59.494;17.978;2022-08-21T14:17:54;2.20;;;0.90;;
29484;SDS011;16440;59.494;17.978;2022-08-21T14:35:49;3.35;;;0.75;;
29484;SDS011;16440;59.494;17.978;2022-08-21T14:38:20;2.70;;;0.90;;
29484;SDS011;16440;59.494;17.978;2022-08-21T14:40:56;3.22;;;0.82;;
29484;SDS011;16440;59.494;17.978;2022-08-21T14:43:26;3.65;;;0.80;;
29484;SDS011;16440;59.494;17.978;2022-08-21T14:45:54;2.78;;;0.88;;
29484;SDS011;16440;59.494;17.978;2022-08-21T14:48:23;4.75;;;0.98;;
29484;SDS011;16440;59.494;17.978;2022-08-21T14:50:53;5.10;;;0.80;;
29484;SDS011;16440;59.494;17.978;2022-08-21T14:53:21;2.90;;;0.90;;
29484;SDS011;16440;59.494;17.978;2022-08-21T14:55:49;3.72;;;0.95;;
29484;SDS011;16440;59.494;17.978;2022-08-21T14:58:34;7.72;;;1.08;;
29484;SDS011;16440;59.494;17.978;2022-08-21T15:01:06;1.98;;;0.90;;
29484;SDS011;16440;59.494;17.978;2022-08-21T15:03:36;3.33;;;0.88;;
29484;SDS011;16440;59.494;17.978;2022-08-21T15:06:08;3.37;;;1.12;;
29484;SDS011;16440;59.494;17.978;2022-08-21T15:08:37;2.22;;;1.30;;
29484;SDS011;16440;59.494;17.978;2022-08-21T15:11:05;4.55;;;1.02;;
29484;SDS011;16440;59.494;17.978;2022-08-21T15:13:39;1.42;;;0.90;;
29484;SDS011;16440;59.494;17.978;2022-08-21T15:16:08;3.50;;;0.75;;
29484;SDS011;16440;59.494;17.978;2022-08-21T15:18:38;2.67;;;1.08;;
29484;SDS011;16440;59.494;17.978;2022-08-21T15:21:09;6.10;;;1.10;;
29484;SDS011;16440;59.494;17.978;2022-08-21T15:23:38;2.58;;;0.80;;
29484;SDS011;16440;59.494;17.978;2022-08-21T15:26:06;3.85;;;1.10;;
29484;SDS011;16440;59.494;17.978;2022-08-21T15:28:35;5.12;;;0.80;;
29484;SDS011;16440;59.494;17.978;2022-08-21T15:31:05;2.70;;;0.73;;
29484;SDS011;16440;59.494;17.978;2022-08-21T15:33:34;3.17;;;1.00;;
29484;SDS011;16440;59.494;17.978;2022-08-21T15:36:05;4.15;;;1.17;;
29484;SDS011;16440;59.494;17.978;2022-08-21T15:38:34;2.25;;;1.00;;
29484;SDS011;16440;59.494;17.978;2022-08-21T15:41:02;2.45;;;0.62;;
29484;SDS011;16440;59.494;17.978;2022-08-21T15:43:33;1.90;;;0.77;;
29484;SDS011;16440;59.494;17.978;2022-08-21T15:46:07;4.97;;;1.10;;
29484;SDS011;16440;59.494;17.978;2022-08-21T15:48:38;3.35;;;0.85;;
29484;SDS011;16440;59.494;17.978;2022-08-21T15:51:07;5.80;;;0.90;;
29484;SDS011;16440;59.494;17.978;2022-08-21T15:53:36;1.85;;;0.85;;
29484;SDS011;16440;59.494;17.978;2022-08-21T15:56:11;2.85;;;0.73;;
29484;SDS011;16440;59.494;17.978;2022-08-21T15:58:46;6.37;;;0.88;;
29484;SDS011;16440;59.494;17.978;2022-08-21T16:01:14;5.87;;;0.90;;
29484;SDS011;16440;59.494;17.978;2022-08-21T16:03:43;1.40;;;0.70;;
29484;SDS011;16440;59.494;17.978;2022-08-21T16:08:43;3.53;;;0.82;;
29484;SDS011;16440;59.494;17.978;2022-08-21T16:11:11;2.60;;;1.25;;
29484;SDS011;16440;59.494;17.978;2022-08-21T16:13:43;1.02;;;0.70;;
29484;SDS011;16440;59.494;17.978;2022-08-21T16:16:18;2.80;;;0.98;;
29484;SDS011;16440;59.494;17.978;2022-08-21T16:18:48;1.00;;;0.80;;
29484;SDS011;16440;59.494;17.978;2022-08-21T16:21:18;5.12;;;1.10;;
29484;SDS011;16440;59.494;17.978;2022-08-21T16:23:46;2.60;;;0.90;;